createdAt,value
2018-06-23T15:11:07.171Z,99482.41
2018-06-23T15:13:40.147Z,99474.39
2018-06-23T15:16:09.889Z,99479.47
2018-06-23T15:18:39.630Z,99476.66
2018-06-23T15:21:09.346Z,99471.02
2018-06-23T15:23:46.056Z,99473.94
2018-06-23T15:26:23.362Z,99477.09
2018-06-23T15:28:53.999Z,99472.61
2018-06-23T15:31:27.315Z,99471.94
2018-06-23T15:34:01.935Z,99468.99
2018-06-23T15:36:32.141Z,99467.09
2018-06-23T15:39:03.253Z,99464.30
2018-06-23T15:41:32.821Z,99466.14
2018-06-23T15:44:03.473Z,99464.05
2018-06-23T15:46:34.718Z,99463.89
2018-06-23T15:49:04.444Z,99464.82
2018-06-23T15:51:38.928Z,99465.72
2018-06-23T15:54:08.905Z,99456.14
2018-06-23T15:56:38.816Z,99464.27
2018-06-23T15:59:13.221Z,99462.77
2018-06-23T16:01:42.974Z,99458.80
2018-06-23T16:04:13.022Z,99459.13
2018-06-23T16:06:43.207Z,99455.53
2018-06-23T16:09:14.152Z,99457.88
2018-06-23T16:11:43.751Z,99447.59
2018-06-23T16:14:13.408Z,99451.06
2018-06-23T16:16:45.050Z,99447.72
2018-06-23T16:19:14.685Z,99449.51
2018-06-23T16:21:47.197Z,99447.87
2018-06-23T16:24:16.725Z,99447.56
2018-06-23T16:26:46.382Z,99453.34
2018-06-23T16:29:15.835Z,99450.55
2018-06-23T16:31:45.646Z,99444.86
2018-06-23T16:34:15.148Z,99444.27
2018-06-23T16:36:44.967Z,99448.20
2018-06-23T16:39:14.826Z,99442.98
2018-06-23T16:41:44.366Z,99444.86
2018-06-23T16:44:13.861Z,99439.13
2018-06-23T16:46:43.966Z,99435.52
2018-06-23T16:49:13.746Z,99435.39
2018-06-23T16:51:43.336Z,99442.40
2018-06-23T16:54:13.005Z,99434.97
2018-06-23T16:56:43.634Z,99443.67
2018-06-23T16:59:15.359Z,99442.09
2018-06-23T17:01:45.295Z,99435.96
2018-06-23T17:04:15.124Z,99436.84
2018-06-23T17:06:45.275Z,99443.88
2018-06-23T17:09:15.693Z,99437.59
2018-06-23T17:11:45.303Z,99449.16
2018-06-23T17:14:14.920Z,99437.93
2018-06-23T17:16:45.138Z,99442.16
2018-06-23T17:19:14.877Z,99442.02
2018-06-23T17:21:44.554Z,99438.13
2018-06-23T17:24:14.248Z,99440.86
2018-06-23T17:26:44.077Z,99449.45
2018-06-23T17:29:13.813Z,99443.56
2018-06-23T17:31:43.498Z,99441.12
2018-06-23T17:34:13.228Z,99443.23
2018-06-23T17:36:42.710Z,99448.51
2018-06-23T17:39:12.290Z,99454.57
2018-06-23T17:41:42.103Z,99447.48
2018-06-23T17:44:12.186Z,99442.27
2018-06-23T17:46:41.909Z,99439.06
2018-06-23T17:49:11.576Z,99445.86
2018-06-23T17:51:41.020Z,99442.73
2018-06-23T17:54:11.019Z,99450.15
2018-06-23T17:56:41.092Z,99454.20
2018-06-23T17:59:10.853Z,99455.41
2018-06-23T18:01:40.489Z,99458.59
2018-06-23T18:04:10.061Z,99458.36
2018-06-23T18:06:39.788Z,99460.08
2018-06-23T18:09:10.613Z,99457.91
2018-06-23T18:11:40.450Z,99460.84
2018-06-23T18:14:10.427Z,99463.02
2018-06-23T18:16:40.005Z,99466.77
2018-06-23T18:19:09.717Z,99467.73
2018-06-23T18:21:40.764Z,99466.43
2018-06-23T18:24:10.535Z,99457.41
2018-06-23T18:26:40.151Z,99474.42
2018-06-23T18:29:09.716Z,99468.84
2018-06-23T18:31:39.897Z,99464.09
2018-06-23T18:34:09.509Z,99462.09
2018-06-23T18:36:39.079Z,99464.77
2018-06-23T18:39:11.145Z,99464.77
2018-06-23T18:41:40.857Z,99461.77
2018-06-23T18:44:10.796Z,99464.17
2018-06-23T18:46:40.383Z,99461.16
2018-06-23T18:49:10.137Z,99451.91
2018-06-23T18:51:41.701Z,99458.16
2018-06-23T18:54:11.436Z,99457.76
2018-06-23T18:56:41.244Z,99463.05
2018-06-23T18:59:10.963Z,99456.73
2018-06-23T19:01:46.784Z,99461.48
2018-06-23T19:04:16.731Z,99459.28
2018-06-23T19:06:46.800Z,99459.73
2018-06-23T19:09:16.544Z,99457.42
2018-06-23T19:11:46.028Z,99456.97
2018-06-23T19:14:15.816Z,99458.17
2018-06-23T19:16:45.747Z,99462.17
2018-06-23T19:19:15.269Z,99464.33
2018-06-23T19:21:44.907Z,99462.99
2018-06-23T19:24:15.302Z,99459.56
2018-06-23T19:26:45.180Z,99461.64
2018-06-23T19:29:14.825Z,99460.73
2018-06-23T19:31:44.630Z,99469.40
2018-06-23T19:34:15.373Z,99467.11
2018-06-23T19:36:45.318Z,99468.81
2018-06-23T19:39:15.043Z,99475.83
2018-06-23T19:41:44.864Z,99476.03
2018-06-23T19:44:14.621Z,99483.08
2018-06-23T19:46:44.135Z,99482.30
2018-06-23T19:49:14.662Z,99482.75
2018-06-23T19:51:44.214Z,99482.03
2018-06-23T19:54:14.993Z,99484.08
2018-06-23T19:56:45.251Z,99488.05
2018-06-23T19:59:14.856Z,99484.09
2018-06-23T20:01:44.587Z,99487.89
2018-06-23T20:04:14.811Z,99486.64
2018-06-23T20:06:44.482Z,99488.09
2018-06-23T20:09:14.412Z,99494.45
2018-06-23T20:11:44.092Z,99492.23
2018-06-23T20:14:13.842Z,99492.81
2018-06-23T20:16:43.679Z,99489.66
2018-06-23T20:19:13.554Z,99490.02
2018-06-23T20:21:43.183Z,99495.14
2018-06-23T20:24:13.001Z,99498.30
2018-06-23T20:26:42.857Z,99491.33
2018-06-23T20:29:12.495Z,99491.69
2018-06-23T20:31:42.554Z,99493.94
2018-06-23T20:34:12.315Z,99497.25
2018-06-23T20:36:42.000Z,99489.41
2018-06-23T20:39:12.247Z,99497.03
2018-06-23T20:41:42.013Z,99495.48
2018-06-23T20:44:11.476Z,99499.47
2018-06-23T20:46:41.057Z,99492.72
2018-06-23T20:49:10.688Z,99488.75
2018-06-23T20:51:42.176Z,99489.76
2018-06-23T20:54:11.854Z,99481.59
2018-06-23T20:56:41.502Z,99487.32
2018-06-23T20:59:12.180Z,99478.95
2018-06-23T21:01:44.084Z,99483.75
2018-06-23T21:04:13.745Z,99489.00
2018-06-23T21:06:43.430Z,99489.73
2018-06-23T21:09:15.827Z,99488.82
2018-06-23T21:11:45.684Z,99491.88
2018-06-23T21:14:15.877Z,99487.16
2018-06-23T21:16:46.237Z,99485.14
2018-06-23T21:19:16.240Z,99485.01
2018-06-23T21:21:45.970Z,99486.77
2018-06-23T21:24:15.538Z,99483.72
2018-06-23T21:26:45.043Z,99486.00
2018-06-23T21:29:14.715Z,99483.20
2018-06-23T21:31:44.228Z,99479.86
2018-06-23T21:34:14.667Z,99478.61
2018-06-23T21:36:44.143Z,99489.47
2018-06-23T21:39:13.876Z,99483.76
2018-06-23T21:41:43.902Z,99491.14
2018-06-23T21:44:13.613Z,99491.66
2018-06-23T21:46:43.092Z,99492.59
2018-06-23T21:49:14.484Z,99492.67
2018-06-23T21:51:44.415Z,99490.44
2018-06-23T21:54:14.375Z,99486.16
2018-06-23T21:56:43.879Z,99485.91
2018-06-23T21:59:13.326Z,99485.63
2018-06-23T22:01:42.848Z,99483.47
2018-06-23T22:04:12.828Z,99480.39
2018-06-23T22:06:42.711Z,99484.15
2018-06-23T22:09:12.958Z,99481.98
2018-06-23T22:11:43.051Z,99478.83
2018-06-23T22:14:12.659Z,99483.37
2018-06-23T22:16:42.262Z,99488.48
2018-06-23T22:19:11.878Z,99486.44
2018-06-23T22:21:41.471Z,99479.79
2018-06-23T22:24:10.955Z,99475.55
2018-06-23T22:26:40.620Z,99482.08
2018-06-23T22:29:10.245Z,99482.89
2018-06-23T22:31:39.945Z,99477.89
2018-06-23T22:34:09.730Z,99471.22
2018-06-23T22:36:39.325Z,99468.90
2018-06-23T22:39:11.201Z,99468.90
2018-06-23T22:41:40.679Z,99470.33
2018-06-23T22:44:10.315Z,99473.30
2018-06-23T22:46:39.848Z,99476.36
2018-06-23T22:49:09.434Z,99478.20
2018-06-23T22:51:39.135Z,99478.50
2018-06-23T22:54:08.734Z,99472.78
2018-06-23T22:56:38.271Z,99474.92
2018-06-23T22:59:07.862Z,99481.16
2018-06-23T23:01:38.242Z,99478.33
2018-06-23T23:04:07.742Z,99480.85
2018-06-23T23:06:37.541Z,99477.98
2018-06-23T23:09:10.020Z,99471.31
2018-06-23T23:11:39.560Z,99471.99
2018-06-23T23:14:09.262Z,99471.47
2018-06-23T23:16:38.787Z,99469.03
2018-06-23T23:19:08.754Z,99471.79
2018-06-23T23:21:38.429Z,99467.59
2018-06-23T23:24:08.158Z,99467.43
2018-06-23T23:26:37.702Z,99463.96
2018-06-23T23:29:07.830Z,99466.72
2018-06-23T23:31:37.394Z,99463.20
2018-06-23T23:34:07.369Z,99462.59
2018-06-23T23:36:36.865Z,99461.43
2018-06-23T23:39:09.737Z,99454.85
2018-06-23T23:41:39.393Z,99465.92
2018-06-23T23:44:09.242Z,99459.17
2018-06-23T23:46:38.844Z,99465.19
2018-06-23T23:49:08.638Z,99459.90
2018-06-23T23:51:38.229Z,99461.23
2018-06-23T23:54:07.742Z,99458.73
2018-06-23T23:56:37.467Z,99457.84
2018-06-23T23:59:07.161Z,99450.59
